createdAt,value
2019-05-29T00:00:34.145Z,87.10
2019-05-29T00:05:27.634Z,86.40
2019-05-29T00:10:27.028Z,86.20
2019-05-29T00:15:20.585Z,86.90
2019-05-29T00:20:15.317Z,85.50
2019-05-29T00:25:10.576Z,88.60
2019-05-29T00:30:05.151Z,86.70
2019-05-29T00:34:58.602Z,87.70
2019-05-29T00:39:59.902Z,89.60
2019-05-29T00:44:53.357Z,88.00
2019-05-29T00:49:50.214Z,88.10
2019-05-29T00:54:43.860Z,88.20
2019-05-29T00:59:37.309Z,87.30
2019-05-29T01:04:31.661Z,88.50
2019-05-29T01:09:25.099Z,87.80
2019-05-29T01:14:19.401Z,86.40
2019-05-29T01:19:25.457Z,90.10
2019-05-29T01:24:19.137Z,88.30
2019-05-29T01:29:12.979Z,89.40
2019-05-29T01:34:15.595Z,89.10
2019-05-29T01:39:09.145Z,90.00
2019-05-29T01:44:02.650Z,89.60
2019-05-29T01:48:56.080Z,89.70
2019-05-29T01:53:51.410Z,89.00
2019-05-29T01:58:51.583Z,89.40
2019-05-29T02:03:45.021Z,89.20
2019-05-29T02:08:39.440Z,90.40
2019-05-29T02:13:32.931Z,89.80
2019-05-29T02:18:27.046Z,88.90
2019-05-29T02:23:20.571Z,88.20
2019-05-29T02:28:14.081Z,90.40
2019-05-29T02:33:07.770Z,90.30
2019-05-29T02:38:01.210Z,90.30
2019-05-29T02:43:01.877Z,89.50
2019-05-29T02:47:55.391Z,89.60
2019-05-29T02:52:56.083Z,88.60
2019-05-29T02:57:52.789Z,90.20
2019-05-29T03:02:46.458Z,89.90
2019-05-29T03:07:40.256Z,90.10
2019-05-29T03:12:33.902Z,90.10
2019-05-29T03:17:40.316Z,90.40
2019-05-29T03:22:35.348Z,91.30
2019-05-29T03:27:29.884Z,92.90
2019-05-29T03:32:23.428Z,94.30
2019-05-29T03:37:20.158Z,92.90
2019-05-29T03:42:16.878Z,91.80
2019-05-29T03:47:10.444Z,91.20
2019-05-29T03:52:15.994Z,91.40
2019-05-29T03:57:11.324Z,90.60
2019-05-29T04:02:04.821Z,92.40
2019-05-29T04:06:58.260Z,92.00
2019-05-29T04:11:53.703Z,92.00
2019-05-29T04:16:59.724Z,92.10
2019-05-29T04:21:46.943Z,91.20
2019-05-29T04:26:40.753Z,91.10
2019-05-29T04:31:36.326Z,90.30
2019-05-29T04:36:45.603Z,90.00
2019-05-29T04:41:45.893Z,91.40
2019-05-29T04:46:40.706Z,92.00
2019-05-29T04:51:40.351Z,92.30
2019-05-29T04:56:35.081Z,92.10
2019-05-29T05:01:28.998Z,91.50
2019-05-29T05:06:22.915Z,91.30
2019-05-29T05:11:22.557Z,91.20
2019-05-29T05:16:16.212Z,90.90
2019-05-29T05:21:09.766Z,88.50
2019-05-29T05:26:03.308Z,89.40
2019-05-29T05:30:58.697Z,88.90
2019-05-29T05:35:55.932Z,88.00
2019-05-29T05:40:49.785Z,88.50
2019-05-29T05:45:43.268Z,86.50
2019-05-29T05:50:39.115Z,86.10
2019-05-29T05:55:33.492Z,84.10
2019-05-29T06:00:34.015Z,84.70
2019-05-29T06:05:28.632Z,84.10
2019-05-29T06:10:22.192Z,81.40
2019-05-29T06:15:15.912Z,81.20
2019-05-29T06:20:09.628Z,81.50
2019-05-29T06:25:03.372Z,80.80
2019-05-29T06:30:14.386Z,77.80
2019-05-29T06:35:08.391Z,76.90
2019-05-29T06:40:01.965Z,75.10
2019-05-29T06:44:55.530Z,75.70
2019-05-29T06:49:51.596Z,74.10
2019-05-29T06:54:45.414Z,74.60
2019-05-29T06:59:40.322Z,72.00
2019-05-29T07:04:36.348Z,70.50
2019-05-29T07:09:29.902Z,69.10
2019-05-29T07:14:23.457Z,69.50
2019-05-29T07:19:26.463Z,66.10
2019-05-29T07:24:12.480Z,66.40
2019-05-29T07:29:09.426Z,63.10
2019-05-29T07:34:02.974Z,60.30
2019-05-29T07:39:03.383Z,62.90
2019-05-29T07:43:51.740Z,63.70
2019-05-29T07:48:46.349Z,59.20
2019-05-29T07:53:42.257Z,58.60
2019-05-29T07:58:36.161Z,58.90
2019-05-29T08:03:31.656Z,56.30
2019-05-29T08:08:25.136Z,60.60
2019-05-29T08:13:18.621Z,61.10
2019-05-29T08:18:12.180Z,58.00
2019-05-29T08:23:05.987Z,58.50
2019-05-29T08:27:59.533Z,57.00
2019-05-29T08:32:53.094Z,54.50
2019-05-29T08:37:47.099Z,55.60
2019-05-29T08:42:49.585Z,52.10
2019-05-29T08:47:43.492Z,51.00
2019-05-29T08:52:37.036Z,52.90
2019-05-29T08:57:30.516Z,55.40
2019-05-29T09:02:24.006Z,51.60
2019-05-29T09:07:17.617Z,51.60
2019-05-29T09:12:11.196Z,47.90
2019-05-29T09:17:05.209Z,51.60
2019-05-29T09:22:00.028Z,46.90
2019-05-29T09:26:53.589Z,47.20
2019-05-29T09:31:48.093Z,46.70
2019-05-29T09:36:42.737Z,49.60
2019-05-29T09:41:36.378Z,51.20
2019-05-29T09:46:29.949Z,47.00
2019-05-29T09:51:29.829Z,42.20
2019-05-29T09:56:36.465Z,42.10
2019-05-29T10:01:30.077Z,44.80
2019-05-29T10:06:24.540Z,41.40
2019-05-29T10:11:24.638Z,46.50
2019-05-29T10:16:19.970Z,42.80
2019-05-29T10:21:17.776Z,41.00
2019-05-29T10:26:13.400Z,39.40
2019-05-29T10:31:06.940Z,40.00
2019-05-29T10:36:04.857Z,37.90
2019-05-29T10:41:06.471Z,42.50
2019-05-29T10:45:54.008Z,44.30
2019-05-29T10:50:50.600Z,44.10
2019-05-29T10:55:44.338Z,41.90
2019-05-29T11:00:41.876Z,38.90
2019-05-29T11:05:35.373Z,36.00
2019-05-29T11:10:28.931Z,40.20
2019-05-29T11:15:22.618Z,39.40
2019-05-29T11:20:18.228Z,41.00
2019-05-29T11:25:22.521Z,41.60
2019-05-29T11:30:20.272Z,38.30
2019-05-29T11:35:22.897Z,32.40
2019-05-29T11:40:17.444Z,34.40
2019-05-29T11:45:11.755Z,29.50
2019-05-29T11:50:19.078Z,33.50
2019-05-29T11:55:08.472Z,33.90
2019-05-29T12:00:16.870Z,31.40
2019-05-29T12:05:01.165Z,35.30
2019-05-29T12:09:53.447Z,37.60
2019-05-29T12:15:00.502Z,35.00
2019-05-29T12:19:44.535Z,32.90
2019-05-29T12:24:38.469Z,31.10
2019-05-29T12:29:32.053Z,32.80
2019-05-29T12:34:26.877Z,29.50
2019-05-29T12:39:20.356Z,28.40
2019-05-29T12:44:14.221Z,33.30
2019-05-29T12:49:07.705Z,31.80
2019-05-29T12:54:04.979Z,31.30
2019-05-29T12:59:00.565Z,31.50
2019-05-29T13:04:00.765Z,32.10
2019-05-29T13:08:54.655Z,28.90
2019-05-29T13:13:48.500Z,31.40
2019-05-29T13:18:43.026Z,29.10
2019-05-29T13:23:45.270Z,30.00
2019-05-29T13:28:31.790Z,34.40
2019-05-29T13:33:27.332Z,36.10
2019-05-29T13:38:20.891Z,33.50
2019-05-29T13:43:15.807Z,33.90
2019-05-29T13:48:09.732Z,33.30
2019-05-29T13:53:03.694Z,29.60
2019-05-29T13:57:57.640Z,29.10
2019-05-29T14:02:51.266Z,32.70
2019-05-29T14:07:44.973Z,31.40
2019-05-29T14:12:38.931Z,30.70
2019-05-29T14:17:34.694Z,29.90
2019-05-29T14:22:27.942Z,33.60
2019-05-29T14:27:22.376Z,34.60
2019-05-29T14:32:17.190Z,31.50
2019-05-29T14:37:11.772Z,32.20
2019-05-29T14:42:08.377Z,34.40
2019-05-29T14:47:10.311Z,35.90
2019-05-29T20:54:02.478Z,54.50
2019-05-29T20:58:58.227Z,55.90
2019-05-29T21:03:54.771Z,55.40
2019-05-29T21:08:49.273Z,55.50
2019-05-29T21:13:48.554Z,55.00
2019-05-29T21:18:44.133Z,55.40
2019-05-29T21:24:07.043Z,55.70
2019-05-29T21:29:00.614Z,57.00
2019-05-29T21:33:54.193Z,56.20
2019-05-29T21:38:49.654Z,56.70
2019-05-29T21:43:44.800Z,56.40
2019-05-29T21:48:39.294Z,56.80
2019-05-29T21:53:34.873Z,56.80
2019-05-29T21:58:28.498Z,57.10
2019-05-29T22:03:28.330Z,56.70
2019-05-29T22:08:21.999Z,57.20
2019-05-29T22:13:28.697Z,56.70
2019-05-29T22:18:28.858Z,56.90
2019-05-29T22:23:24.362Z,56.90
2019-05-29T22:28:18.892Z,56.60
2019-05-29T22:33:12.721Z,56.10
2019-05-29T22:38:06.298Z,56.00
2019-05-29T22:43:01.970Z,55.90
2019-05-29T22:47:59.815Z,55.30
2019-05-29T22:52:53.804Z,54.90
2019-05-29T22:57:47.442Z,55.50
2019-05-29T23:02:42.901Z,54.60
2019-05-29T23:07:37.369Z,54.20
2019-05-29T23:12:30.916Z,53.60
2019-05-29T23:17:26.809Z,53.80
2019-05-29T23:22:26.101Z,53.70
2019-05-29T23:27:25.177Z,53.30
2019-05-29T23:32:19.008Z,53.60
2019-05-29T23:37:16.657Z,54.00
2019-05-29T23:42:10.509Z,53.20
2019-05-29T23:47:10.255Z,52.90
2019-05-29T23:52:05.058Z,53.30
2019-05-29T23:57:04.533Z,53.30
